createdAt,value
2018-08-20T00:00:05.778Z,0.00
2018-08-20T00:01:05.778Z,0.00
2018-08-20T00:02:05.784Z,0.00
2018-08-20T00:03:05.780Z,0.00
2018-08-20T00:04:05.786Z,0.00
2018-08-20T00:05:05.781Z,0.00
2018-08-20T00:06:05.784Z,0.00
2018-08-20T00:07:05.788Z,0.00
2018-08-20T00:08:05.789Z,0.00
2018-08-20T00:09:05.790Z,0.00
2018-08-20T00:10:05.788Z,0.00
2018-08-20T00:11:05.793Z,0.00
2018-08-20T00:12:05.796Z,0.00
2018-08-20T00:13:05.794Z,0.00
2018-08-20T00:14:05.795Z,0.00
2018-08-20T00:15:05.798Z,0.00
2018-08-20T00:16:05.801Z,0.00
2018-08-20T00:17:05.802Z,0.00
2018-08-20T00:18:05.803Z,0.00
2018-08-20T00:19:05.805Z,0.00
2018-08-20T00:20:05.811Z,0.00
2018-08-20T00:21:05.806Z,0.00
2018-08-20T00:22:05.813Z,0.00
2018-08-20T00:23:05.810Z,0.00
2018-08-20T00:24:05.809Z,0.00
2018-08-20T00:25:05.816Z,0.00
2018-08-20T00:26:05.811Z,0.00
2018-08-20T00:27:05.812Z,0.00
2018-08-20T00:28:05.814Z,0.00
2018-08-20T00:29:05.815Z,0.00
2018-08-20T00:30:05.820Z,0.00
2018-08-20T00:31:05.819Z,0.00
2018-08-20T00:32:05.823Z,0.00
2018-08-20T00:33:05.822Z,0.00
2018-08-20T00:34:05.821Z,0.00
2018-08-20T00:35:05.823Z,0.00
2018-08-20T00:36:05.820Z,0.00
2018-08-20T00:37:05.826Z,0.00
2018-08-20T00:38:05.827Z,0.00
2018-08-20T00:39:05.830Z,0.00
2018-08-20T00:40:05.830Z,0.00
2018-08-20T00:41:05.833Z,0.00
2018-08-20T00:42:05.833Z,0.00
2018-08-20T00:43:05.833Z,0.00
2018-08-20T00:44:05.847Z,0.00
2018-08-20T00:45:05.839Z,0.00
2018-08-20T00:46:05.840Z,0.00
2018-08-20T00:47:05.837Z,0.00
2018-08-20T00:48:05.840Z,0.00
2018-08-20T00:49:05.840Z,0.00
2018-08-20T00:50:05.845Z,0.00
2018-08-20T00:51:05.844Z,0.00
2018-08-20T00:52:05.846Z,0.00
2018-08-20T00:53:05.845Z,0.00
2018-08-20T00:54:05.850Z,0.00
2018-08-20T00:55:05.851Z,0.00
2018-08-20T00:56:05.847Z,0.00
2018-08-20T00:57:05.852Z,0.00
2018-08-20T00:58:05.851Z,0.00
2018-08-20T00:59:05.856Z,0.00
2018-08-20T01:00:05.854Z,0.00
2018-08-20T01:01:05.859Z,0.00
2018-08-20T01:02:05.856Z,0.00
2018-08-20T01:03:05.856Z,0.00
2018-08-20T01:04:05.862Z,0.00
2018-08-20T01:05:05.860Z,0.00
2018-08-20T01:06:05.856Z,0.00
2018-08-20T01:07:05.862Z,0.00
2018-08-20T01:08:05.863Z,0.00
2018-08-20T01:09:05.867Z,0.00
2018-08-20T01:10:05.867Z,0.00
2018-08-20T01:11:05.868Z,0.00
2018-08-20T01:12:05.870Z,0.00
2018-08-20T01:13:05.867Z,0.00
2018-08-20T01:14:05.872Z,0.00
2018-08-20T01:15:05.872Z,0.00
2018-08-20T01:16:05.876Z,0.00
2018-08-20T01:17:05.874Z,0.00
2018-08-20T01:18:05.876Z,0.00
2018-08-20T01:19:05.877Z,0.00
2018-08-20T01:20:05.879Z,0.00
2018-08-20T01:21:05.879Z,0.00
2018-08-20T01:22:05.880Z,0.00
2018-08-20T01:23:05.882Z,0.00
2018-08-20T01:24:05.884Z,0.00
2018-08-20T01:25:05.884Z,0.00
2018-08-20T01:26:05.895Z,0.00
2018-08-20T01:27:05.889Z,0.00
2018-08-20T01:28:05.887Z,0.00
2018-08-20T01:29:05.890Z,0.00
2018-08-20T01:30:05.888Z,0.00
2018-08-20T01:31:05.893Z,0.00
2018-08-20T01:32:05.891Z,0.00
2018-08-20T01:33:05.889Z,0.00
2018-08-20T01:34:05.894Z,0.00
2018-08-20T01:35:05.895Z,0.00
2018-08-20T01:36:05.898Z,0.00
2018-08-20T01:37:05.899Z,0.00
2018-08-20T01:38:05.900Z,0.00
2018-08-20T01:39:05.902Z,0.00
2018-08-20T01:40:05.904Z,0.00
2018-08-20T01:41:05.905Z,0.00
2018-08-20T01:42:05.903Z,0.00
2018-08-20T01:43:05.904Z,0.00
2018-08-20T01:44:05.905Z,0.00
2018-08-20T01:45:05.905Z,0.00
2018-08-20T01:46:05.907Z,0.00
2018-08-20T01:47:05.909Z,0.00
2018-08-20T01:48:05.909Z,0.00
2018-08-20T01:49:05.915Z,0.00
2018-08-20T01:50:05.911Z,0.00
2018-08-20T01:51:05.913Z,0.00
2018-08-20T01:52:05.916Z,0.00
2018-08-20T01:53:05.911Z,0.00
2018-08-20T01:54:05.916Z,0.00
2018-08-20T01:55:05.918Z,0.00
2018-08-20T01:56:05.918Z,0.00
2018-08-20T01:57:05.915Z,0.00
2018-08-20T01:58:05.920Z,0.00
2018-08-20T01:59:05.929Z,0.00
2018-08-20T02:00:05.923Z,0.00
2018-08-20T02:01:05.922Z,0.00
2018-08-20T02:02:05.925Z,0.00
2018-08-20T02:03:05.926Z,0.00
2018-08-20T02:04:05.926Z,0.00
2018-08-20T02:05:05.927Z,0.00
2018-08-20T02:06:05.928Z,0.00
2018-08-20T02:07:05.929Z,0.00
2018-08-20T02:08:05.932Z,0.00
2018-08-20T02:09:05.933Z,0.00
2018-08-20T02:10:05.933Z,0.00
2018-08-20T02:11:05.936Z,0.00
2018-08-20T02:12:05.942Z,0.00
2018-08-20T02:13:05.936Z,0.00
2018-08-20T02:14:05.940Z,0.00
2018-08-20T02:15:05.943Z,0.00
2018-08-20T02:16:05.941Z,0.00
2018-08-20T02:17:05.940Z,0.00
2018-08-20T02:18:05.941Z,0.00
2018-08-20T02:19:05.944Z,0.00
2018-08-20T02:20:05.948Z,0.00
2018-08-20T02:21:05.944Z,0.00
2018-08-20T02:22:05.951Z,0.00
2018-08-20T02:23:05.944Z,0.00
2018-08-20T02:24:05.949Z,0.00
2018-08-20T02:25:05.949Z,0.00
2018-08-20T02:26:05.950Z,0.00
2018-08-20T02:27:05.950Z,0.00
2018-08-20T02:28:05.950Z,0.00
2018-08-20T02:29:05.954Z,0.00
2018-08-20T02:30:05.951Z,0.00
2018-08-20T02:31:05.956Z,0.00
2018-08-20T02:32:05.956Z,0.00
2018-08-20T02:33:05.955Z,0.00
2018-08-20T02:34:05.962Z,0.00
2018-08-20T02:35:05.968Z,0.00
2018-08-20T02:36:05.955Z,0.00
2018-08-20T02:37:05.958Z,0.00
2018-08-20T02:38:05.960Z,0.00
2018-08-20T02:39:05.964Z,0.00
2018-08-20T02:40:05.967Z,0.00
2018-08-20T02:41:05.965Z,0.00
2018-08-20T02:42:05.964Z,0.00
2018-08-20T02:43:05.965Z,0.00
2018-08-20T02:44:05.965Z,0.00
2018-08-20T02:45:05.969Z,0.00
2018-08-20T02:46:05.962Z,0.00
2018-08-20T02:47:05.968Z,0.00
2018-08-20T02:48:05.969Z,0.00
2018-08-20T02:49:05.970Z,0.00
2018-08-20T02:50:05.970Z,0.00
2018-08-20T02:51:05.972Z,0.00
2018-08-20T02:52:05.976Z,0.00
2018-08-20T02:53:05.975Z,0.00
2018-08-20T02:54:05.978Z,0.00
2018-08-20T02:55:05.977Z,0.00
2018-08-20T02:56:05.977Z,0.00
2018-08-20T02:57:05.987Z,0.00
2018-08-20T02:58:05.976Z,0.00
2018-08-20T02:59:05.979Z,0.00
2018-08-20T03:00:05.982Z,0.00
2018-08-20T03:01:05.980Z,0.00
2018-08-20T03:02:06.053Z,0.00
2018-08-20T03:03:05.982Z,0.00
2018-08-20T03:04:05.986Z,0.00
2018-08-20T03:05:05.983Z,0.00
2018-08-20T03:06:05.985Z,0.00
2018-08-20T03:07:05.991Z,0.00
2018-08-20T03:08:05.988Z,0.00
2018-08-20T03:09:05.987Z,0.00
2018-08-20T03:10:05.988Z,0.00
2018-08-20T03:11:05.986Z,0.00
2018-08-20T03:12:05.987Z,0.00
2018-08-20T03:13:05.989Z,0.00
2018-08-20T03:14:05.990Z,0.00
2018-08-20T03:15:05.990Z,0.00
2018-08-20T03:16:05.991Z,0.00
2018-08-20T03:17:05.999Z,0.00
2018-08-20T03:18:05.994Z,0.00
2018-08-20T03:19:05.993Z,0.00
2018-08-20T03:20:05.995Z,0.00
2018-08-20T03:21:05.996Z,0.00
2018-08-20T03:22:05.994Z,0.00
2018-08-20T03:23:05.992Z,4.00
2018-08-20T03:24:05.997Z,4.00
2018-08-20T03:25:05.996Z,4.00
2018-08-20T03:26:05.999Z,0.00
2018-08-20T03:27:05.998Z,4.00
2018-08-20T03:28:05.997Z,4.00
2018-08-20T03:29:06.009Z,4.00
2018-08-20T03:30:06.005Z,8.00
2018-08-20T03:31:06.009Z,8.00
2018-08-20T03:32:06.002Z,8.00
2018-08-20T03:33:06.003Z,8.00
2018-08-20T03:34:06.009Z,8.00
2018-08-20T03:35:06.004Z,12.00
2018-08-20T03:36:06.005Z,16.00
2018-08-20T03:37:06.007Z,16.00
2018-08-20T03:38:06.002Z,20.00
2018-08-20T03:39:06.008Z,20.00
2018-08-20T03:40:06.007Z,28.00
2018-08-20T03:41:06.006Z,28.00
2018-08-20T03:42:06.011Z,32.00
2018-08-20T03:43:06.010Z,36.00
2018-08-20T03:44:06.010Z,40.00
2018-08-20T03:45:06.009Z,48.00
2018-08-20T03:46:06.013Z,52.00
2018-08-20T03:47:06.013Z,60.00
2018-08-20T03:48:06.011Z,64.00
2018-08-20T03:49:06.011Z,72.00
2018-08-20T03:50:06.015Z,80.00
2018-08-20T03:51:06.012Z,88.00
2018-08-20T03:52:06.013Z,96.00
2018-08-20T03:53:06.013Z,108.00
2018-08-20T03:54:06.015Z,116.00
2018-08-20T03:55:06.013Z,128.00
2018-08-20T03:56:06.019Z,136.00
2018-08-20T03:57:06.016Z,148.00
2018-08-20T03:58:06.016Z,164.00
2018-08-20T03:59:06.017Z,180.00
2018-08-20T04:00:06.019Z,192.00
2018-08-20T04:01:06.015Z,208.00
2018-08-20T04:02:06.019Z,232.00
2018-08-20T04:03:06.023Z,248.00
2018-08-20T04:04:06.020Z,268.00
2018-08-20T04:05:06.151Z,284.00
2018-08-20T04:06:06.052Z,304.00
2018-08-20T04:07:06.021Z,324.00
2018-08-20T04:08:06.023Z,348.00
2018-08-20T04:09:06.023Z,368.00
2018-08-20T04:10:06.021Z,392.00
2018-08-20T04:11:06.026Z,416.00
2018-08-20T04:12:06.022Z,444.00
2018-08-20T04:13:06.026Z,468.00
2018-08-20T04:14:06.024Z,496.00
2018-08-20T04:15:06.025Z,524.00
2018-08-20T04:16:06.026Z,552.00
2018-08-20T04:17:06.028Z,584.00
2018-08-20T04:18:06.078Z,612.00
2018-08-20T04:19:06.026Z,648.00
2018-08-20T04:20:06.031Z,680.00
2018-08-20T04:21:06.026Z,716.00
2018-08-20T04:22:06.026Z,752.00
2018-08-20T04:23:06.029Z,788.00
2018-08-20T04:24:06.031Z,824.00
2018-08-20T04:25:06.029Z,860.00
2018-08-20T04:26:06.032Z,896.00
2018-08-20T04:27:06.037Z,940.00
2018-08-20T04:28:06.035Z,984.00
2018-08-20T04:29:06.031Z,1028.00
2018-08-20T04:30:06.033Z,1076.00
2018-08-20T04:31:06.034Z,1124.00
2018-08-20T04:32:06.028Z,1172.00
2018-08-20T04:33:06.040Z,1228.00
2018-08-20T04:34:06.032Z,1276.00
2018-08-20T04:35:06.036Z,1328.00
2018-08-20T04:36:06.037Z,1380.00
2018-08-20T04:37:06.046Z,1428.00
2018-08-20T04:38:06.042Z,1476.00
2018-08-20T04:39:06.037Z,1524.00
2018-08-20T04:40:06.041Z,1568.00
2018-08-20T04:41:06.037Z,1604.00
2018-08-20T04:42:06.045Z,1640.00
2018-08-20T04:43:06.045Z,1664.00
2018-08-20T04:44:06.045Z,1692.00
2018-08-20T04:45:06.041Z,1720.00
2018-08-20T04:46:06.042Z,1752.00
2018-08-20T04:47:06.047Z,1776.00
2018-08-20T04:48:06.045Z,1804.00
2018-08-20T04:49:06.044Z,1840.00
2018-08-20T04:50:06.220Z,1868.00
2018-08-20T04:51:06.159Z,1920.00
2018-08-20T04:52:06.051Z,1976.00
2018-08-20T04:53:06.049Z,2028.00
2018-08-20T04:54:06.047Z,2084.00
2018-08-20T04:55:06.047Z,2144.00
2018-08-20T04:56:06.049Z,2212.00
2018-08-20T04:57:06.049Z,2328.00
2018-08-20T04:58:06.053Z,2468.00
2018-08-20T04:59:06.051Z,2556.00
2018-08-20T05:00:06.053Z,2664.00
2018-08-20T05:01:06.055Z,2772.00
2018-08-20T05:02:06.057Z,2900.00
2018-08-20T05:03:06.059Z,2988.00
2018-08-20T05:04:06.099Z,3124.00
2018-08-20T05:05:06.062Z,3304.00
2018-08-20T05:06:06.060Z,3484.00
2018-08-20T05:07:06.057Z,3820.00
2018-08-20T05:08:06.070Z,4052.00
2018-08-20T05:09:06.060Z,4200.00
2018-08-20T05:10:06.121Z,4512.00
2018-08-20T05:11:06.065Z,4628.00
2018-08-20T05:12:06.066Z,4820.00
2018-08-20T05:13:06.066Z,4768.00
2018-08-20T05:14:06.071Z,4500.00
2018-08-20T05:15:06.070Z,4152.00
2018-08-20T05:16:06.071Z,3244.00
2018-08-20T05:17:06.072Z,3292.00
2018-08-20T05:18:06.083Z,3220.00
2018-08-20T05:19:06.091Z,3160.00
2018-08-20T05:20:06.086Z,3236.00
2018-08-20T05:21:06.079Z,3148.00
2018-08-20T05:22:06.080Z,3392.00
2018-08-20T05:23:06.083Z,3312.00
2018-08-20T05:24:06.085Z,3160.00
2018-08-20T05:25:06.091Z,3436.00
2018-08-20T05:26:06.090Z,3828.00
2018-08-20T05:27:06.091Z,4312.00
2018-08-20T05:28:06.093Z,4124.00
2018-08-20T05:29:06.099Z,3752.00
2018-08-20T05:30:06.097Z,4344.00
2018-08-20T05:31:06.100Z,4024.00
2018-08-20T05:32:06.105Z,3876.00
2018-08-20T05:33:06.144Z,3772.00
2018-08-20T05:34:06.107Z,4316.00
2018-08-20T05:35:06.113Z,4432.00
2018-08-20T05:36:06.112Z,4648.00
2018-08-20T05:37:06.114Z,5264.00
2018-08-20T05:38:06.117Z,4328.00
2018-08-20T05:39:06.122Z,4648.00
2018-08-20T05:40:06.126Z,4772.00
2018-08-20T05:41:06.124Z,4828.00
2018-08-20T05:42:06.122Z,4424.00
2018-08-20T05:43:06.129Z,4336.00
2018-08-20T05:44:06.141Z,4056.00
2018-08-20T05:45:06.132Z,4308.00
2018-08-20T05:46:06.145Z,4280.00
2018-08-20T05:47:06.137Z,4756.00
2018-08-20T05:48:06.141Z,4576.00
2018-08-20T05:49:06.142Z,4668.00
2018-08-20T05:50:06.146Z,4780.00
2018-08-20T05:51:06.148Z,5008.00
2018-08-20T05:52:06.147Z,4624.00
2018-08-20T05:53:06.150Z,4772.00
2018-08-20T05:54:06.153Z,4648.00
2018-08-20T05:55:06.154Z,4892.00
2018-08-20T05:56:06.159Z,4600.00
2018-08-20T05:57:06.161Z,4304.00
2018-08-20T05:58:06.170Z,5148.00
2018-08-20T05:59:06.222Z,4672.00
2018-08-20T06:00:06.170Z,4940.00
2018-08-20T06:01:06.172Z,5752.00
2018-08-20T06:02:06.173Z,5576.00
2018-08-20T06:03:06.178Z,5800.00
2018-08-20T06:04:06.181Z,6392.00
2018-08-20T06:05:06.183Z,5664.00
2018-08-20T06:06:06.182Z,5848.00
2018-08-20T06:07:06.185Z,6572.00
2018-08-20T06:08:06.197Z,6440.00
2018-08-20T06:09:06.189Z,6192.00
2018-08-20T06:10:06.194Z,6736.00
2018-08-20T06:11:06.201Z,6324.00
2018-08-20T06:12:06.201Z,6928.00
2018-08-20T06:13:06.206Z,6552.00
2018-08-20T06:14:06.208Z,5764.00
2018-08-20T06:15:06.265Z,5904.00
2018-08-20T06:16:06.210Z,6480.00
2018-08-20T06:17:06.214Z,6884.00
2018-08-20T06:18:06.217Z,7100.00
2018-08-20T06:19:06.221Z,8516.00
2018-08-20T06:20:06.226Z,7112.00
2018-08-20T06:21:06.227Z,6288.00
2018-08-20T06:22:06.230Z,7044.00
2018-08-20T06:23:06.232Z,6788.00
2018-08-20T06:24:06.235Z,7872.00
2018-08-20T06:25:06.299Z,8836.00
2018-08-20T06:26:06.240Z,8136.00
2018-08-20T06:27:06.246Z,7216.00
2018-08-20T06:28:06.248Z,7676.00
2018-08-20T06:29:06.251Z,8616.00
2018-08-20T06:30:06.251Z,8276.00
2018-08-20T06:31:06.261Z,9828.00
2018-08-20T06:32:06.262Z,12080.00
2018-08-20T06:33:06.267Z,9476.00
2018-08-20T06:34:06.268Z,9600.00
2018-08-20T06:35:06.265Z,8352.00
2018-08-20T06:36:06.274Z,8912.00
2018-08-20T06:37:06.274Z,9392.00
2018-08-20T06:38:06.277Z,16288.00
2018-08-20T06:39:06.280Z,9560.00
2018-08-20T06:40:06.285Z,8672.00
2018-08-20T06:41:06.288Z,8212.00
2018-08-20T06:42:06.297Z,8044.00
2018-08-20T06:43:06.298Z,7572.00
2018-08-20T06:44:06.301Z,6072.00
2018-08-20T06:45:06.305Z,5836.00
2018-08-20T06:46:06.304Z,4280.00
2018-08-20T06:47:06.319Z,4188.00
2018-08-20T06:48:06.320Z,3788.00
2018-08-20T06:49:06.318Z,3416.00
2018-08-20T06:50:06.325Z,3172.00
2018-08-20T06:51:06.332Z,3412.00
2018-08-20T06:52:06.328Z,4612.00
2018-08-20T06:53:06.330Z,4168.00
2018-08-20T06:54:06.336Z,5544.00
2018-08-20T06:55:06.360Z,4796.00
2018-08-20T06:56:06.342Z,5440.00
2018-08-20T06:57:06.344Z,5504.00
2018-08-20T06:58:06.348Z,6352.00
2018-08-20T06:59:06.354Z,5992.00
2018-08-20T07:00:06.357Z,6776.00
2018-08-20T07:01:06.357Z,6848.00
2018-08-20T07:02:06.364Z,6672.00
2018-08-20T07:03:06.366Z,6748.00
2018-08-20T07:04:06.369Z,7204.00
2018-08-20T07:05:06.378Z,7056.00
2018-08-20T07:06:06.371Z,7288.00
2018-08-20T07:07:06.381Z,6992.00
2018-08-20T07:08:06.385Z,7324.00
2018-08-20T07:09:06.383Z,7124.00
2018-08-20T07:10:06.391Z,7376.00
2018-08-20T07:11:06.391Z,7856.00
2018-08-20T07:12:06.393Z,8044.00
2018-08-20T07:13:06.400Z,7936.00
2018-08-20T07:14:06.404Z,8088.00
2018-08-20T07:15:06.405Z,8168.00
2018-08-20T07:16:06.408Z,8432.00
2018-08-20T07:17:06.410Z,8500.00
2018-08-20T07:18:06.414Z,8532.00
2018-08-20T07:19:06.420Z,8372.00
2018-08-20T07:20:06.425Z,8956.00
2018-08-20T07:21:06.423Z,9380.00
2018-08-20T07:22:06.428Z,9552.00
2018-08-20T07:23:06.445Z,9296.00
2018-08-20T07:24:06.433Z,9152.00
2018-08-20T07:25:06.436Z,8736.00
2018-08-20T07:26:06.443Z,8496.00
2018-08-20T07:27:06.445Z,8444.00
2018-08-20T07:28:06.452Z,8548.00
2018-08-20T07:29:06.451Z,8532.00
2018-08-20T07:30:06.455Z,8744.00
2018-08-20T07:31:06.458Z,9556.00
2018-08-20T07:32:06.459Z,10040.00
2018-08-20T07:33:06.496Z,10776.00
2018-08-20T07:34:06.470Z,11796.00
2018-08-20T07:35:06.488Z,12096.00
2018-08-20T07:36:06.476Z,12420.00
2018-08-20T07:37:06.480Z,11664.00
2018-08-20T07:38:06.483Z,10128.00
2018-08-20T07:39:06.486Z,9340.00
2018-08-20T07:40:06.491Z,8556.00
2018-08-20T07:41:06.494Z,8240.00
2018-08-20T07:42:06.498Z,7752.00
2018-08-20T07:43:06.503Z,7944.00
2018-08-20T07:44:06.507Z,8472.00
2018-08-20T07:45:06.511Z,8748.00
2018-08-20T07:46:06.512Z,9080.00
2018-08-20T07:47:06.518Z,8876.00
2018-08-20T07:48:06.520Z,9384.00
2018-08-20T07:49:06.528Z,9500.00
2018-08-20T07:50:06.542Z,9664.00
2018-08-20T07:51:06.532Z,9376.00
2018-08-20T07:52:06.535Z,9372.00
2018-08-20T07:53:06.539Z,9552.00
2018-08-20T07:54:06.542Z,9800.00
2018-08-20T07:55:06.552Z,10080.00
2018-08-20T07:56:06.551Z,9732.00
2018-08-20T07:57:06.554Z,8956.00
2018-08-20T07:58:06.560Z,8464.00
2018-08-20T07:59:06.567Z,8128.00
2018-08-20T08:00:06.569Z,7588.00
2018-08-20T08:01:06.571Z,7224.00
2018-08-20T08:02:06.575Z,7216.00
2018-08-20T08:03:06.583Z,7324.00
2018-08-20T08:04:06.583Z,7340.00
2018-08-20T08:05:06.585Z,7272.00
2018-08-20T08:06:06.590Z,7064.00
2018-08-20T08:07:06.593Z,6852.00
2018-08-20T08:08:06.598Z,6692.00
2018-08-20T08:09:06.605Z,6700.00
2018-08-20T08:10:06.605Z,6868.00
2018-08-20T08:11:06.608Z,7096.00
2018-08-20T08:12:06.613Z,7168.00
2018-08-20T08:13:06.615Z,7044.00
2018-08-20T08:14:06.620Z,6848.00
2018-08-20T08:15:06.625Z,6756.00
2018-08-20T08:16:06.627Z,6688.00
2018-08-20T08:17:06.628Z,6708.00
2018-08-20T08:18:06.637Z,6772.00
2018-08-20T08:19:06.638Z,6936.00
2018-08-20T08:20:06.639Z,7200.00
2018-08-20T08:21:06.644Z,7156.00
2018-08-20T08:22:06.647Z,7088.00
2018-08-20T08:23:06.651Z,7124.00
2018-08-20T08:24:06.655Z,7260.00
2018-08-20T08:25:06.660Z,7492.00
2018-08-20T08:26:06.666Z,7408.00
2018-08-20T08:27:06.670Z,7472.00
2018-08-20T08:28:06.670Z,7780.00
2018-08-20T08:29:06.674Z,7868.00
2018-08-20T08:30:06.677Z,7836.00
2018-08-20T08:31:06.681Z,7740.00
2018-08-20T08:32:06.687Z,7908.00
2018-08-20T08:33:06.689Z,7852.00
2018-08-20T08:34:06.687Z,7928.00
2018-08-20T08:35:06.697Z,7736.00
2018-08-20T08:36:06.702Z,7820.00
2018-08-20T08:37:06.702Z,7604.00
2018-08-20T08:38:06.806Z,7428.00
2018-08-20T08:39:06.713Z,7356.00
2018-08-20T08:40:06.762Z,7392.00
2018-08-20T08:41:06.725Z,7524.00
2018-08-20T08:42:06.725Z,7388.00
2018-08-20T08:43:06.908Z,7444.00
2018-08-20T08:44:06.728Z,7448.00
2018-08-20T08:45:06.875Z,7596.00
2018-08-20T08:46:06.737Z,7648.00
2018-08-20T08:47:06.743Z,7704.00
2018-08-20T08:48:06.749Z,7888.00
2018-08-20T08:49:06.747Z,8160.00
2018-08-20T08:50:06.755Z,8656.00
2018-08-20T08:51:06.756Z,9340.00
2018-08-20T08:52:06.760Z,9656.00
2018-08-20T08:53:06.766Z,10092.00
2018-08-20T08:54:06.767Z,10092.00
2018-08-20T08:55:06.767Z,9772.00
2018-08-20T08:56:06.771Z,9440.00
2018-08-20T08:57:06.778Z,9292.00
2018-08-20T08:58:06.791Z,9840.00
2018-08-20T08:59:06.793Z,10448.00
2018-08-20T09:00:06.793Z,10260.00
2018-08-20T09:01:06.794Z,9244.00
2018-08-20T09:02:06.801Z,8984.00
2018-08-20T09:03:06.804Z,8456.00
2018-08-20T09:04:06.808Z,9044.00
2018-08-20T09:05:06.812Z,9768.00
2018-08-20T09:06:06.819Z,10060.00
2018-08-20T09:07:06.817Z,10600.00
2018-08-20T09:08:06.855Z,11000.00
2018-08-20T09:09:06.864Z,10740.00
2018-08-20T09:10:06.840Z,10416.00
2018-08-20T09:11:06.840Z,10524.00
2018-08-20T09:12:06.843Z,10788.00
2018-08-20T09:13:06.861Z,10484.00
2018-08-20T09:14:06.997Z,9852.00
2018-08-20T09:15:06.998Z,9548.00
2018-08-20T09:16:06.870Z,9504.00
2018-08-20T09:17:06.862Z,9480.00
2018-08-20T09:18:06.998Z,9588.00
2018-08-20T09:19:06.875Z,9500.00
2018-08-20T09:20:06.879Z,9552.00
2018-08-20T09:21:06.888Z,9756.00
2018-08-20T09:22:06.885Z,9968.00
2018-08-20T09:23:06.888Z,10280.00
2018-08-20T09:24:06.893Z,10416.00
2018-08-20T09:25:06.898Z,10348.00
2018-08-20T09:26:06.900Z,10132.00
2018-08-20T09:27:06.906Z,10076.00
2018-08-20T09:28:06.986Z,9956.00
2018-08-20T09:29:06.977Z,9744.00
2018-08-20T09:30:06.919Z,9712.00
2018-08-20T09:31:06.922Z,9836.00
2018-08-20T09:32:06.928Z,9872.00
2018-08-20T09:33:06.941Z,9772.00
2018-08-20T09:34:06.940Z,9568.00
2018-08-20T09:35:06.945Z,9224.00
2018-08-20T09:36:06.939Z,8992.00
2018-08-20T09:37:06.951Z,8872.00
2018-08-20T09:38:06.953Z,9060.00
2018-08-20T09:39:06.955Z,8764.00
2018-08-20T09:40:06.964Z,8252.00
2018-08-20T09:41:06.964Z,7824.00
2018-08-20T09:42:06.972Z,7972.00
2018-08-20T09:43:06.974Z,7732.00
2018-08-20T09:44:07.006Z,7476.00
2018-08-20T09:45:06.982Z,7088.00
2018-08-20T09:46:07.029Z,5664.00
2018-08-20T09:47:06.990Z,6064.00
2018-08-20T09:48:06.995Z,5856.00
2018-08-20T09:49:06.998Z,5596.00
2018-08-20T09:50:07.003Z,5468.00
2018-08-20T09:51:07.007Z,5320.00
2018-08-20T09:52:07.016Z,5280.00
2018-08-20T09:53:07.149Z,5092.00
2018-08-20T09:54:07.181Z,4848.00
2018-08-20T09:55:07.024Z,4404.00
2018-08-20T09:56:07.027Z,4512.00
2018-08-20T09:57:07.032Z,4492.00
2018-08-20T09:58:07.035Z,4860.00
2018-08-20T09:59:07.101Z,5600.00
2018-08-20T10:00:07.044Z,6160.00
2018-08-20T10:01:07.054Z,6732.00
2018-08-20T10:02:07.058Z,7148.00
2018-08-20T10:03:07.059Z,7356.00
2018-08-20T10:04:07.059Z,7316.00
2018-08-20T10:05:07.057Z,7180.00
2018-08-20T10:06:07.114Z,7196.00
2018-08-20T10:07:07.077Z,7112.00
2018-08-20T10:08:07.072Z,7020.00
2018-08-20T10:09:07.136Z,7028.00
2018-08-20T10:10:07.113Z,7144.00
2018-08-20T10:11:07.086Z,7320.00
2018-08-20T10:12:07.094Z,7548.00
2018-08-20T10:13:07.096Z,7624.00
2018-08-20T10:14:07.161Z,7708.00
2018-08-20T10:15:07.098Z,7848.00
2018-08-20T10:16:07.146Z,8240.00
2018-08-20T10:17:07.110Z,8648.00
2018-08-20T10:18:07.113Z,8844.00
2018-08-20T10:19:07.118Z,8928.00
2018-08-20T10:20:07.126Z,9140.00
2018-08-20T10:21:07.128Z,9380.00
2018-08-20T10:22:07.138Z,9356.00
2018-08-20T10:23:07.136Z,9284.00
2018-08-20T10:24:07.230Z,9356.00
2018-08-20T10:25:07.143Z,9356.00
2018-08-20T10:26:07.148Z,8972.00
2018-08-20T10:27:07.152Z,8584.00
2018-08-20T10:28:07.156Z,8848.00
2018-08-20T10:29:07.160Z,8968.00
2018-08-20T10:30:07.164Z,9108.00
2018-08-20T10:31:07.169Z,9372.00
2018-08-20T10:32:07.225Z,9640.00
2018-08-20T10:33:07.175Z,9796.00
2018-08-20T10:34:07.180Z,10076.00
2018-08-20T10:35:07.185Z,10260.00
2018-08-20T10:36:07.192Z,10004.00
2018-08-20T10:37:07.194Z,10940.00
2018-08-20T10:38:07.200Z,11860.00
2018-08-20T10:39:07.207Z,12280.00
2018-08-20T10:40:07.212Z,12216.00
2018-08-20T10:41:07.213Z,12040.00
2018-08-20T10:42:07.227Z,12248.00
2018-08-20T10:43:07.221Z,12456.00
2018-08-20T10:44:07.227Z,12608.00
2018-08-20T10:45:07.231Z,12648.00
2018-08-20T10:46:07.236Z,12364.00
2018-08-20T10:47:07.241Z,11704.00
2018-08-20T10:48:07.253Z,10652.00
2018-08-20T10:49:07.251Z,9324.00
2018-08-20T10:50:07.352Z,7672.00
2018-08-20T10:51:07.260Z,6480.00
2018-08-20T10:52:07.264Z,5920.00
2018-08-20T10:53:07.272Z,5540.00
2018-08-20T10:54:07.277Z,5160.00
2018-08-20T10:55:07.286Z,4756.00
2018-08-20T10:56:07.285Z,4068.00
2018-08-20T10:57:07.289Z,3640.00
2018-08-20T10:58:07.294Z,3572.00
2018-08-20T10:59:07.294Z,4068.00
2018-08-20T11:00:07.304Z,4404.00
2018-08-20T11:01:07.306Z,3976.00
2018-08-20T11:02:07.361Z,3156.00
2018-08-20T11:03:07.315Z,3016.00
2018-08-20T11:04:07.322Z,3208.00
2018-08-20T11:05:07.325Z,3476.00
2018-08-20T11:06:07.332Z,4172.00
2018-08-20T11:07:07.359Z,4708.00
2018-08-20T11:08:07.341Z,4804.00
2018-08-20T11:09:07.347Z,5188.00
2018-08-20T11:10:07.362Z,4816.00
2018-08-20T11:11:07.363Z,3820.00
2018-08-20T11:12:07.360Z,3048.00
2018-08-20T11:13:07.363Z,2848.00
2018-08-20T11:14:07.368Z,3008.00
2018-08-20T11:15:07.372Z,3132.00
2018-08-20T11:16:07.415Z,3284.00
2018-08-20T11:17:07.381Z,3216.00
2018-08-20T11:18:07.386Z,3284.00
2018-08-20T11:19:07.390Z,2892.00
2018-08-20T11:20:07.395Z,3252.00
2018-08-20T11:21:07.396Z,3472.00
2018-08-20T11:22:07.473Z,3480.00
2018-08-20T11:23:07.421Z,3568.00
2018-08-20T11:24:07.413Z,3448.00
2018-08-20T11:25:07.415Z,3740.00
2018-08-20T11:26:07.422Z,3568.00
2018-08-20T11:27:07.648Z,3904.00
2018-08-20T11:28:07.426Z,4356.00
2018-08-20T11:29:07.436Z,5132.00
2018-08-20T11:30:07.463Z,5224.00
2018-08-20T11:31:07.438Z,5752.00
2018-08-20T11:32:07.442Z,6000.00
2018-08-20T11:33:07.548Z,5500.00
2018-08-20T11:34:07.454Z,4752.00
2018-08-20T11:35:07.470Z,4088.00
2018-08-20T11:36:07.458Z,3368.00
2018-08-20T11:37:07.533Z,2732.00
2018-08-20T11:38:07.466Z,2864.00
2018-08-20T11:39:07.470Z,2712.00
2018-08-20T11:40:07.474Z,2236.00
2018-08-20T11:41:07.640Z,1976.00
2018-08-20T11:42:07.478Z,1940.00
2018-08-20T11:43:07.487Z,1900.00
2018-08-20T11:44:07.488Z,1760.00
2018-08-20T11:45:07.493Z,1816.00
2018-08-20T11:46:07.499Z,1844.00
2018-08-20T11:47:07.690Z,1708.00
2018-08-20T11:48:07.507Z,1836.00
2018-08-20T11:49:07.593Z,2096.00
2018-08-20T11:50:07.511Z,2472.00
2018-08-20T11:51:07.511Z,2844.00
2018-08-20T11:52:07.521Z,3204.00
2018-08-20T11:53:07.520Z,3168.00
2018-08-20T11:54:07.524Z,3332.00
2018-08-20T11:55:07.528Z,3572.00
2018-08-20T11:56:07.534Z,3728.00
2018-08-20T11:57:07.535Z,3604.00
2018-08-20T11:58:07.580Z,3504.00
2018-08-20T11:59:07.581Z,3508.00
2018-08-20T12:00:07.549Z,3324.00
2018-08-20T12:01:07.548Z,3380.00
2018-08-20T12:02:07.552Z,3228.00
2018-08-20T12:03:07.554Z,2960.00
2018-08-20T12:04:07.604Z,2968.00
2018-08-20T12:05:07.565Z,3500.00
2018-08-20T12:06:07.566Z,4300.00
2018-08-20T12:07:07.596Z,4904.00
2018-08-20T12:08:07.573Z,5400.00
2018-08-20T12:09:07.579Z,5652.00
2018-08-20T12:10:07.584Z,5820.00
2018-08-20T12:11:07.584Z,6156.00
2018-08-20T12:12:07.591Z,6396.00
2018-08-20T12:13:07.585Z,6592.00
2018-08-20T12:14:07.593Z,6832.00
2018-08-20T12:15:07.595Z,7056.00
2018-08-20T12:16:07.601Z,7112.00
2018-08-20T12:17:07.663Z,7016.00
2018-08-20T12:18:07.608Z,7064.00
2018-08-20T12:19:07.612Z,7316.00
2018-08-20T12:20:07.616Z,7388.00
2018-08-20T12:21:07.625Z,7284.00
2018-08-20T12:22:07.622Z,7112.00
2018-08-20T12:23:07.681Z,7152.00
2018-08-20T12:24:07.632Z,7404.00
2018-08-20T12:25:07.637Z,7500.00
2018-08-20T12:26:07.640Z,7420.00